Latest Weather Observations for Melbourne (Olympic Park)

IDV60801

Issued at 3:02 pm EST Friday 31 July 2015 (issued every 30 minutes, with the page automatically refreshed every 10 minutes)

About weather observations | Map of weather stations | Latest weather observations for VIC | Other Formats
Station Details ID: 086338 Name: MELBOURNE (OLYMPIC PARK) Lat: -37.83 Lon: 144.98 Height: 7.53 m
Data from the previous 72 hours. | See also: Recent months at Melbourne (Olympic Park)
Date/Time
EST
Temp
°C
App
Temp
°C
Dew
Point
Rel
Hum
%
Delta-T
°C
Wind Press
QNH
hPa
Press
MSL
hPa
Rain
since 9 am
mm
Dir
 
Spd
km/h
Gust
km/h
Spd
kts
Gust
kts
31/03:00pm 13.3 7.8 1.6 45 5.0 N 20 30 11 16 1016.8 1016.8 0.0
31/02:30pm 13.2 8.1 0.9 43 5.2 NNE 17 26 9 14 1017.1 1017.1 0.0
31/02:00pm 13.2 8.0 0.3 41 5.4 NNW 17 26 9 14 1017.5 1017.5 0.0
31/01:30pm 13.1 9.3 1.5 45 5.0 NNW 11 24 6 13 1018.1 1018.1 0.0
31/01:00pm 12.7 8.7 0.8 44 5.0 N 11 17 6 9 1018.8 1018.8 0.0
31/12:30pm 12.5 8.7 1.8 48 4.6 NW 11 19 6 10 1019.6 1019.6 0.0
31/12:00pm 11.7 7.9 1.6 50 4.3 NNW 11 20 6 11 1020.4 1020.4 0.0
31/11:30am 11.8 8.1 2.3 52 4.1 N 11 17 6 9 1021.0 1021.0 0.0
31/11:00am 11.2 8.0 2.8 56 3.6 NNW 9 19 5 10 1021.6 1021.6 0.0
31/10:30am 10.8 8.2 3.4 60 3.2 N 6 11 3 6 1021.7 1021.7 0.0
31/10:00am 9.5 7.0 4.5 71 2.2 N 7 13 4 7 1021.6 1021.6 0.0
31/09:30am 7.7 4.7 4.1 78 1.6 NE 9 13 5 7 1021.4 1021.4 0.0
31/09:00am 6.5 3.0 3.7 82 1.2 NNE 11 15 6 8 1021.5 1021.5 0.6
31/08:30am 5.7 3.6 3.9 88 0.8 NE 4 11 2 6 1021.4 1021.4 0.6
31/08:00am 4.8 3.5 3.9 94 0.4 CALM 0 6 0 3 1021.4 1021.4 0.6
31/07:30am 4.4 2.6 3.4 93 0.4 SE 2 9 1 5 1021.0 1021.0 0.6
31/07:00am 4.5 3.0 3.2 91 0.5 CALM 0 2 0 1 1020.4 1020.4 0.6
31/06:30am 4.9 3.5 3.6 91 0.5 CALM 0 6 0 3 1020.2 1020.2 0.6
31/06:00am 5.4 3.6 3.4 87 0.8 ESE 2 7 1 4 1019.9 1019.9 0.6
31/05:30am 6.0 4.2 3.5 84 1.0 WNW 2 9 1 5 1019.7 1019.7 0.6
31/05:00am 6.8 4.1 3.8 81 1.3 WSW 7 17 4 9 1019.6 1019.6 0.6
31/04:30am 7.1 4.1 3.9 80 1.4 W 9 17 5 9 1019.2 1019.2 0.6
31/04:00am 6.9 4.2 3.9 81 1.3 W 7 13 4 7 1019.0 1019.0 0.6
31/03:30am 7.2 4.8 4.2 81 1.3 W 6 11 3 6 1019.0 1019.0 0.6
31/03:00am 7.3 4.9 4.3 81 1.3 W 6 9 3 5 1019.0 1019.0 0.6
31/02:30am 7.9 5.0 4.5 79 1.5 W 9 13 5 7 1019.1 1019.1 0.6
31/02:00am 8.0 5.7 4.6 79 1.5 WNW 6 11 3 6 1018.9 1018.9 0.6
31/01:30am 8.6 6.1 5.0 78 1.6 WNW 7 17 4 9 1018.8 1018.8 0.6
31/01:00am 8.8 6.4 5.2 78 1.6 WNW 7 17 4 9 1018.6 1018.6 0.6
31/12:30am 8.7 6.8 4.9 77 1.7 NW 4 11 2 6 1018.6 1018.6 0.6
31/12:00am 9.3 7.0 5.5 77 1.7 W 7 19 4 10 1018.4 1018.4 0.6
 
Date/Time
EST
Temp
°C
App
Temp
°C
Dew
Point
Rel
Hum
%
Delta-T
°C
Wind Press
QNH
hPa
Press
MSL
hPa
Rain
since 9 am
mm
Dir
 
Spd
km/h
Gust
km/h
Spd
kts
Gust
kts
30/11:30pm 9.6 7.3 5.8 77 1.7 WNW 7 13 4 7 1018.4 1018.4 0.6
30/11:00pm 9.6 7.6 6.3 80 1.5 WNW 6 11 3 6 1018.1 1018.1 0.6
30/10:30pm 10.0 8.2 7.1 82 1.4 NW 6 17 3 9 1018.1 1018.1 0.6
30/10:00pm 9.9 6.8 7.2 83 1.3 NW 13 20 7 11 1018.1 1018.1 0.6
30/09:30pm 9.7 6.9 7.1 84 1.2 NNW 11 19 6 10 1017.6 1017.6 0.4
30/09:00pm 10.1 6.4 6.4 78 1.7 NNW 15 22 8 12 1016.7 1016.7 0.0
30/08:30pm 10.4 4.1 5.8 73 2.1 NNW 28 50 15 27 1016.1 1016.1 0.0
30/08:07pm 10.7 3.6 5.5 70 2.4 NNW 32 54 17 29 1015.5 1015.5 0.0
30/08:00pm 10.7 3.0 5.3 69 2.5 NNW 35 48 19 26 1015.4 1015.4 0.0
30/07:30pm 11.1 4.6 4.6 64 2.9 NNW 28 52 15 28 1015.1 1015.1 0.0
30/07:00pm 11.2 4.2 4.2 62 3.1 N 30 54 16 29 1014.4 1014.4 0.0
30/06:30pm 11.3 3.9 4.1 61 3.2 NNW 32 52 17 28 1013.7 1013.7 0.0
30/06:15pm 11.4 4.7 3.9 60 3.3 NNW 28 48 15 26 1013.8 1013.8 0.0
30/06:00pm 11.5 4.1 3.8 59 3.4 NNW 32 44 17 24 1013.7 1013.7 0.0
30/05:30pm 11.6 4.1 3.4 57 3.6 N 32 46 17 25 1012.8 1012.8 0.0
30/05:00pm 11.8 4.3 3.6 57 3.6 N 32 56 17 30 1012.3 1012.3 0.0
30/04:30pm 11.7 3.7 3.7 58 3.6 N 35 54 19 29 1012.4 1012.4 0.0
30/04:00pm 11.8 3.8 3.6 57 3.6 N 35 54 19 29 1012.7 1012.7 0.0
30/03:30pm 12.1 4.3 2.8 53 4.1 N 33 57 18 31 1013.0 1013.0 0.0
30/03:08pm 12.1 5.2 2.8 53 4.1 N 28 50 15 27 1013.6 1013.6 0.0
30/03:00pm 11.8 5.8 3.6 57 3.6 N 24 43 13 23 1013.9 1013.9 0.0
30/02:30pm 11.5 3.8 3.3 57 3.6 N 33 63 18 34 1014.7 1014.7 0.0
30/02:00pm 11.5 4.7 3.3 57 3.6 N 28 52 15 28 1014.6 1014.6 0.0
30/01:31pm 11.3 4.7 4.3 62 3.1 N 28 46 15 25 1015.3 1015.3 0.0
30/01:30pm 11.2 5.0 4.4 63 3.1 N 26 46 14 25 1015.4 1015.4 0.0
30/01:00pm 11.3 4.5 3.3 58 3.5 N 28 46 15 25 1016.2 1016.2 0.0
30/12:44pm 11.3 3.6 3.3 58 3.5 N 33 52 18 28 1016.9 1016.9 0.0
30/12:30pm 11.5 3.8 3.5 58 3.5 N 33 48 18 26 1017.4 1017.4 0.0
30/12:00pm 11.5 4.2 4.3 61 3.2 N 32 52 17 28 1018.4 1018.4 0.0
30/11:30am 11.0 3.4 3.8 61 3.2 N 33 52 18 28 1018.8 1018.8 0.0
30/11:00am 11.0 2.9 3.3 59 3.4 N 35 59 19 32 1019.2 1019.2 0.0
30/10:45am 11.1 4.4 3.9 61 3.2 N 28 50 15 27 1019.6 1019.6 0.0
30/10:30am 10.7 3.7 4.0 63 3.0 N 30 44 16 24 1020.2 1020.2 0.0
30/10:03am 10.4 3.7 3.9 64 2.9 N 28 52 15 28 1020.6 1020.6 0.0
30/10:00am 10.4 4.5 3.9 64 2.9 N 24 41 13 22 1020.7 1020.7 0.0
30/09:30am 9.9 2.9 3.9 66 2.6 N 30 48 16 26 1021.0 1021.0 0.0
30/09:13am 9.8 2.4 3.8 66 2.6 N 32 52 17 28 1020.7 1020.7 0.0
30/09:00am 10.1 3.8 3.8 65 2.8 N 26 44 14 24 1020.7 1020.7 0.0
30/08:30am 9.6 2.9 3.8 67 2.5 N 28 46 15 25 1020.9 1020.9 0.0
30/08:18am 9.5 2.8 3.9 68 2.5 N 28 50 15 27 1020.8 1020.8 0.0
30/08:00am 9.2 3.6 3.6 68 2.4 N 22 41 12 22 1020.8 1020.8 0.0
30/07:30am 8.8 3.8 3.6 70 2.2 N 19 35 10 19 1021.2 1021.2 0.0
30/07:00am 8.8 2.9 3.8 71 2.2 N 24 35 13 19 1021.2 1021.2 0.0
30/06:30am 8.7 3.1 3.7 71 2.2 N 22 37 12 20 1021.6 1021.6 0.0
30/06:00am 9.0 3.1 4.0 71 2.2 N 24 37 13 20 1021.6 1021.6 0.0
30/05:30am 8.6 4.1 4.0 73 2.0 N 17 26 9 14 1021.7 1021.7 0.0
30/05:00am 9.0 3.8 3.8 70 2.2 N 20 30 11 16 1022.2 1022.2 0.0
30/04:30am 9.3 3.7 3.5 67 2.5 N 22 39 12 21 1022.4 1022.4 0.0
30/04:00am 9.1 4.2 3.9 70 2.3 N 19 28 10 15 1022.9 1022.9 0.0
30/03:30am 9.2 4.7 4.0 70 2.3 N 17 30 9 16 1023.3 1023.3 0.0
30/03:00am 8.9 4.3 3.9 71 2.2 N 17 32 9 17 1023.4 1023.4 0.0
30/02:30am 8.8 3.6 3.8 71 2.2 N 20 33 11 18 1024.0 1024.0 0.0
30/02:00am 9.1 4.5 3.9 70 2.3 N 17 30 9 16 1024.7 1024.7 0.0
30/01:30am 9.1 4.9 3.9 70 2.3 N 15 24 8 13 1025.2 1025.2 0.0
30/01:00am 9.3 5.5 4.1 70 2.3 N 13 20 7 11 1025.5 1025.5 0.0
30/12:30am 9.4 4.9 4.4 71 2.2 N 17 24 9 13 1026.0 1026.0 0.0
30/12:00am 9.7 6.0 4.5 70 2.3 N 13 24 7 13 1026.2 1026.2 0.0
 
Date/Time
EST
Temp
°C
App
Temp
°C
Dew
Point
Rel
Hum
%
Delta-T
°C
Wind Press
QNH
hPa
Press
MSL
hPa
Rain
since 9 am
mm
Dir
 
Spd
km/h
Gust
km/h
Spd
kts
Gust
kts
29/11:30pm 9.7 5.6 4.5 70 2.3 N 15 20 8 11 1026.9 1026.9 0.0
29/11:00pm 9.9 5.9 4.9 71 2.2 N 15 20 8 11 1027.2 1027.2 0.0
29/10:30pm 10.0 6.4 5.0 71 2.3 N 13 19 7 10 1027.2 1027.2 0.0
29/10:00pm 10.1 6.5 5.1 71 2.2 N 13 20 7 11 1027.6 1027.6 0.0
29/09:30pm 10.5 6.6 5.3 70 2.4 N 15 26 8 14 1027.9 1027.9 0.0
29/09:00pm 10.6 7.1 5.4 70 2.4 N 13 19 7 10 1027.9 1027.9 0.0
29/08:30pm 10.7 6.4 5.3 69 2.5 N 17 26 9 14 1028.1 1028.1 0.0
29/08:00pm 10.8 6.9 5.3 69 2.5 N 15 24 8 13 1028.1 1028.1 0.0
29/07:30pm 10.7 6.8 5.3 69 2.5 N 15 24 8 13 1028.4 1028.4 0.0
29/07:00pm 10.8 6.8 4.9 67 2.7 N 15 30 8 16 1028.3 1028.3 0.0
29/06:30pm 10.9 6.5 4.8 66 2.8 N 17 24 9 13 1028.3 1028.3 0.0
29/06:00pm 11.1 7.1 4.8 65 2.8 N 15 22 8 12 1028.0 1028.0 0.0
29/05:30pm 11.2 6.1 4.2 62 3.1 N 20 30 11 16 1028.2 1028.2 0.0
29/05:00pm 11.4 6.3 4.2 61 3.2 N 20 30 11 16 1028.3 1028.3 0.0
29/04:30pm 11.8 7.3 4.3 60 3.4 N 17 22 9 12 1028.1 1028.1 0.0
29/04:00pm 12.3 8.0 3.3 54 4.0 N 15 30 8 16 1028.4 1028.4 0.0
29/03:30pm 12.4 7.5 4.1 57 3.7 N 19 30 10 16 1028.6 1028.6 0.0
29/03:00pm 12.6 7.6 3.5 54 4.0 N 19 32 10 17 1029.0 1029.0 0.0
29/02:30pm 12.7 7.5 3.6 54 4.1 N 20 33 11 18 1029.2 1029.2 0.0
29/02:00pm 13.1 8.9 4.0 54 4.1 N 15 26 8 14 1029.6 1029.6 0.0
29/01:30pm 12.9 8.0 4.3 56 3.9 NNW 19 30 10 16 1030.0 1030.0 0.0
29/01:00pm 13.3 8.2 3.9 53 4.2 N 20 30 11 16 1030.2 1030.2 0.0
29/12:30pm 13.5 9.0 4.1 53 4.3 N 17 26 9 14 1030.9 1030.9 0.0
29/12:00pm 13.1 7.9 2.4 48 4.6 N 19 28 10 15 1031.6 1031.6 0.0
29/11:30am 13.1 7.9 3.5 52 4.3 NNW 20 30 11 16 1032.3 1032.3 0.0
29/11:00am 13.7 9.5 4.0 52 4.4 NNW 15 22 8 12 1032.6 1032.6 0.0
29/10:30am 12.5 8.6 3.5 54 4.0 NNW 13 20 7 11 1032.7 1032.7 0.0
29/10:00am 12.1 9.2 4.8 61 3.3 N 9 15 5 8 1033.1 1033.1 0.0
29/09:30am 11.3 8.5 5.0 65 2.9 N 9 11 5 6 1033.3 1033.3 0.0
29/09:00am 9.9 6.9 4.1 67 2.5 N 9 15 5 8 1033.3 1033.3 0.0
29/08:30am 8.7 5.8 4.5 75 1.9 NNE 9 11 5 6 1033.5 1033.5 0.0
29/08:00am 8.6 5.9 5.4 80 1.4 NNE 9 11 5 6 1033.3 1033.3 0.0
29/07:30am 8.7 6.1 6.2 84 1.1 NNE 9 13 5 7 1032.9 1032.9 0.0
29/07:00am 9.0 6.5 6.6 85 1.1 NNE 9 13 5 7 1032.8 1032.8 0.0
29/06:30am 9.3 6.9 6.9 85 1.1 NNE 9 13 5 7 1032.9 1032.9 0.0
29/06:00am 9.6 7.6 7.0 84 1.2 NE 7 11 4 6 1032.7 1032.7 0.0
29/05:30am 9.7 7.7 7.1 84 1.2 NNE 7 9 4 5 1032.5 1032.5 0.0
29/05:00am 9.7 7.3 7.1 84 1.2 NE 9 13 5 7 1032.4 1032.4 0.0
29/04:30am 10.0 8.3 7.6 85 1.1 NNE 6 7 3 4 1032.7 1032.7 0.0
29/04:00am 9.8 7.9 7.4 85 1.1 NE 7 11 4 6 1032.7 1032.7 0.0
29/03:30am 9.9 7.6 7.3 84 1.2 NE 9 11 5 6 1032.8 1032.8 0.0
29/03:00am 10.5 9.5 7.4 81 1.5 NE 2 6 1 3 1032.9 1032.9 0.0
29/02:30am 10.0 9.4 7.6 85 1.1 CALM 0 6 0 3 1033.2 1033.2 0.0
29/02:00am 10.4 8.7 7.5 82 1.4 NNW 6 7 3 4 1033.3 1033.3 0.0
29/01:30am 10.6 8.7 7.5 81 1.5 NNE 7 9 4 5 1033.0 1033.0 0.0
29/01:00am 10.7 8.8 7.4 80 1.6 NNE 7 9 4 5 1033.0 1033.0 0.0
29/12:30am 10.8 9.8 7.5 80 1.6 NW 2 7 1 4 1033.7 1033.7 0.0
29/12:00am 10.8 9.8 7.5 80 1.6 NW 2 11 1 6 1033.9 1033.9 0.0
 
Date/Time
EST
Temp
°C
App
Temp
°C
Dew
Point
Rel
Hum
%
Delta-T
°C
Wind Press
QNH
hPa
Press
MSL
hPa
Rain
since 9 am
mm
Dir
 
Spd
km/h
Gust
km/h
Spd
kts
Gust
kts
28/11:30pm 10.5 9.6 7.6 82 1.4 WSW 2 7 1 4 1033.9 1033.9 0.0
28/11:00pm 10.7 10.1 7.4 80 1.6 CALM 0 0 0 0 1034.0 1034.0 0.0
28/10:30pm 11.1 9.8 7.6 79 1.7 SW 4 11 2 6 1034.2 1034.2 0.0
28/10:00pm 11.3 8.7 7.6 78 1.8 SSW 11 17 6 9 1034.4 1034.4 0.0
28/09:30pm 10.4 9.8 7.6 83 1.3 CALM 0 0 0 0 1034.2 1034.2 0.0
28/09:00pm 10.3 9.7 7.5 83 1.3 CALM 0 0 0 0 1034.2 1034.2 0.0
28/08:30pm 10.9 10.3 7.4 79 1.7 CALM 0 4 0 2 1034.1 1034.1 0.0
28/08:00pm 11.4 9.6 7.3 76 1.9 N 6 9 3 5 1034.0 1034.0 0.0
28/07:30pm 10.5 10.0 7.7 83 1.3 CALM 0 0 0 0 1034.1 1034.1 0.0
28/07:00pm 10.3 9.7 7.5 83 1.3 CALM 0 0 0 0 1034.1 1034.1 0.0
28/06:30pm 10.3 9.8 7.7 84 1.2 CALM 0 0 0 0 1033.8 1033.8 0.0
28/06:00pm 10.2 9.6 7.3 82 1.4 CALM 0 0 0 0 1033.7 1033.7 0.0
28/05:30pm 10.9 10.2 7.0 77 1.9 CALM 0 0 0 0 1033.6 1033.6 0.0
28/05:00pm 11.5 9.7 7.0 74 2.1 S 6 13 3 7 1033.5 1033.5 0.0
28/04:30pm 11.9 9.9 7.0 72 2.3 SSW 7 15 4 8 1033.3 1033.3 0.0
28/04:00pm 12.3 10.5 7.2 71 2.4 SSW 6 11 3 6 1033.5 1033.5 0.0
28/03:30pm 12.8 11.2 7.9 72 2.4 SSW 6 11 3 6 1033.3 1033.3 0.0

Other Formats:

Comma delimited format used in spreadsheet applications
http://www.bom.gov.au/fwo/IDV60801/IDV60801.95936.axf

JavaScript Object Notation format (JSON) in row-major order
http://www.bom.gov.au/fwo/IDV60801/IDV60801.95936.json